createdAt,value
2022-12-18T00:00:10.958Z,45.22
2022-12-18T00:01:19.395Z,46.55
2022-12-18T00:02:21.185Z,44.20
2022-12-18T00:03:22.751Z,43.58
2022-12-18T00:04:25.715Z,45.03
2022-12-18T00:05:27.355Z,44.35
2022-12-18T00:06:30.605Z,43.08
2022-12-18T00:08:33.417Z,42.63
2022-12-18T00:09:39.778Z,49.20
2022-12-18T00:10:42.197Z,45.53
2022-12-18T00:11:44.098Z,41.95
2022-12-18T00:12:48.962Z,39.85
2022-12-18T00:13:50.544Z,38.20
2022-12-18T00:14:52.081Z,39.53
2022-12-18T00:15:53.607Z,45.10
2022-12-18T00:17:01.541Z,42.58
2022-12-18T00:18:03.336Z,44.95
2022-12-18T00:19:06.347Z,43.25
2022-12-18T00:20:08.581Z,38.88
2022-12-18T00:21:11.758Z,43.95
2022-12-18T00:22:13.214Z,41.42
2022-12-18T00:23:14.646Z,50.03
2022-12-18T00:24:16.480Z,53.40
2022-12-18T00:25:17.906Z,59.42
2022-12-18T00:26:22.984Z,52.75
2022-12-18T00:27:24.423Z,47.35
2022-12-18T00:28:25.883Z,44.00
2022-12-18T00:29:27.406Z,43.45
2022-12-18T00:30:29.072Z,43.72
2022-12-18T00:31:30.667Z,43.85
2022-12-18T00:32:33.483Z,40.13
2022-12-18T00:33:35.874Z,42.00
2022-12-18T00:34:37.935Z,41.65
2022-12-18T00:35:39.375Z,36.67
2022-12-18T00:36:42.100Z,41.55
2022-12-18T00:37:43.578Z,44.22
2022-12-18T00:38:46.035Z,38.53
2022-12-18T00:39:49.548Z,41.30
2022-12-18T00:40:51.346Z,44.28
2022-12-18T00:42:11.606Z,47.78
2022-12-18T00:43:13.118Z,54.17
2022-12-18T00:44:17.173Z,71.60
2022-12-18T00:45:18.659Z,123.60
2022-12-18T00:46:20.213Z,118.35
2022-12-18T00:47:21.686Z,100.85
2022-12-18T00:48:23.310Z,91.35
2022-12-18T00:49:25.113Z,79.82
2022-12-18T00:50:26.988Z,93.18
2022-12-18T00:51:28.748Z,88.28
2022-12-18T00:52:30.236Z,76.57
2022-12-18T00:53:31.741Z,81.20
2022-12-18T00:54:33.525Z,65.45
2022-12-18T00:55:35.345Z,70.85
2022-12-18T00:56:45.761Z,59.33
2022-12-18T00:57:52.796Z,60.33
2022-12-18T00:58:54.324Z,67.82
2022-12-18T00:59:56.285Z,70.28
2022-12-18T01:00:57.737Z,67.57
2022-12-18T01:01:59.731Z,62.10
2022-12-18T01:03:01.325Z,63.35
2022-12-18T01:04:04.202Z,58.08
2022-12-18T01:05:06.305Z,59.80
2022-12-18T01:06:09.492Z,53.70
2022-12-18T01:08:12.469Z,61.17
2022-12-18T01:09:14.888Z,70.03
2022-12-18T01:10:16.360Z,70.00
2022-12-18T01:11:20.364Z,74.65
2022-12-18T01:12:21.907Z,70.57
2022-12-18T01:13:23.350Z,72.82
2022-12-18T01:14:25.260Z,65.20
2022-12-18T01:15:26.874Z,46.20
2022-12-18T01:16:28.555Z,45.90
2022-12-18T01:17:30.098Z,41.97
2022-12-18T01:18:31.575Z,40.47
2022-12-18T01:19:33.307Z,41.97
2022-12-18T01:20:34.776Z,41.90
2022-12-18T01:21:36.492Z,36.88
2022-12-18T01:22:38.015Z,39.95
2022-12-18T01:23:39.999Z,42.08
2022-12-18T01:24:42.186Z,39.75
2022-12-18T01:25:43.616Z,39.33
2022-12-18T01:26:45.025Z,44.92
2022-12-18T01:27:46.479Z,40.15
2022-12-18T01:28:47.998Z,39.38
2022-12-18T01:29:50.795Z,41.35
2022-12-18T01:30:52.609Z,35.55
2022-12-18T01:31:56.457Z,37.83
2022-12-18T01:32:58.577Z,35.17
2022-12-18T01:34:05.942Z,34.78
2022-12-18T01:35:07.994Z,34.33
2022-12-18T01:36:15.957Z,34.72
2022-12-18T01:37:17.464Z,37.97
2022-12-18T01:38:18.967Z,37.72
2022-12-18T01:39:20.762Z,36.35
2022-12-18T01:40:22.871Z,31.73
2022-12-18T01:41:27.851Z,38.97
2022-12-18T01:42:29.397Z,36.30
2022-12-18T01:43:53.518Z,33.30
2022-12-18T01:45:07.748Z,33.42
2022-12-18T01:46:09.259Z,34.70
2022-12-18T01:47:34.149Z,33.17
2022-12-18T01:48:35.666Z,30.73
2022-12-18T01:49:37.476Z,34.83
2022-12-18T01:50:43.974Z,35.55
2022-12-18T01:51:45.478Z,32.20
2022-12-18T01:53:00.433Z,35.22
2022-12-18T01:54:01.925Z,34.97
2022-12-18T01:55:06.251Z,38.00
2022-12-18T01:56:09.879Z,35.58
2022-12-18T01:57:11.524Z,33.80
2022-12-18T01:58:13.441Z,36.70
2022-12-18T01:59:15.653Z,29.73
2022-12-18T02:00:20.576Z,30.20
2022-12-18T02:01:26.252Z,33.03
2022-12-18T02:02:30.092Z,37.65
2022-12-18T02:03:31.706Z,35.72
2022-12-18T02:04:33.522Z,34.75
2022-12-18T02:05:49.234Z,34.63
2022-12-18T02:07:01.015Z,31.30
2022-12-18T02:08:08.117Z,32.78
2022-12-18T02:09:30.820Z,33.28
2022-12-18T02:10:53.801Z,32.90
2022-12-18T02:12:08.963Z,33.92
2022-12-18T02:13:22.080Z,33.55
2022-12-18T02:14:45.075Z,34.80
2022-12-18T02:16:00.139Z,38.65
2022-12-18T02:17:12.645Z,35.13
2022-12-18T02:18:22.148Z,39.70
2022-12-18T02:19:56.311Z,37.05
2022-12-18T02:22:27.355Z,34.30
2022-12-18T02:23:50.092Z,38.15
2022-12-18T02:25:02.761Z,37.80
2022-12-18T02:26:07.602Z,41.55
2022-12-18T02:27:11.669Z,37.33
2022-12-18T02:28:19.449Z,37.17
2022-12-18T02:29:46.534Z,38.88
2022-12-18T02:30:51.838Z,35.92
2022-12-18T02:31:56.857Z,38.72
2022-12-18T02:33:00.066Z,38.50
2022-12-18T02:35:08.083Z,44.90
2022-12-18T02:36:11.878Z,44.83
2022-12-18T02:37:17.671Z,36.80
2022-12-18T02:38:19.277Z,49.70
2022-12-18T02:39:23.077Z,42.88
2022-12-18T02:40:27.196Z,42.38
2022-12-18T02:41:29.496Z,44.83
2022-12-18T02:42:31.616Z,47.47
2022-12-18T02:43:33.087Z,42.90
2022-12-18T02:44:39.027Z,46.65
2022-12-18T02:45:54.755Z,49.17
2022-12-18T02:46:56.381Z,44.60
2022-12-18T02:47:57.927Z,42.00
2022-12-18T02:49:10.671Z,45.97
2022-12-18T02:50:27.803Z,51.95
2022-12-18T02:51:46.558Z,47.85
2022-12-18T02:53:03.146Z,44.13
2022-12-18T02:54:17.405Z,49.67
2022-12-18T02:55:49.726Z,47.83
2022-12-18T02:56:58.826Z,45.15
2022-12-18T02:58:16.710Z,48.30
2022-12-18T02:59:25.395Z,45.25
2022-12-18T03:00:40.053Z,46.67
2022-12-18T03:01:54.673Z,39.90
2022-12-18T03:03:08.189Z,49.20
2022-12-18T03:04:41.777Z,48.10
2022-12-18T03:06:10.598Z,41.60
2022-12-18T03:07:20.402Z,41.97
2022-12-18T03:08:37.052Z,43.88
2022-12-18T03:09:44.591Z,46.63
2022-12-18T03:10:56.789Z,46.50
2022-12-18T03:12:23.520Z,49.35
2022-12-18T03:13:35.178Z,37.17
2022-12-18T03:14:39.129Z,42.88
2022-12-18T03:15:48.754Z,39.55
2022-12-18T03:16:55.012Z,42.60
2022-12-18T03:18:02.847Z,38.20
2022-12-18T03:19:13.114Z,44.45
2022-12-18T03:20:18.770Z,38.08
2022-12-18T03:21:27.482Z,40.00
2022-12-18T03:22:33.134Z,40.78
2022-12-18T03:23:43.959Z,37.50
2022-12-18T03:24:47.597Z,38.47
2022-12-18T03:25:52.717Z,37.95
2022-12-18T03:26:59.093Z,45.28
2022-12-18T03:28:03.880Z,39.10
2022-12-18T03:29:10.009Z,39.10
2022-12-18T03:30:14.623Z,37.28
2022-12-18T03:31:17.551Z,41.35
2022-12-18T03:32:32.339Z,41.35
2022-12-18T03:33:53.222Z,38.00
2022-12-18T03:34:59.981Z,42.92
2022-12-18T03:36:02.018Z,40.92
2022-12-18T03:37:03.651Z,38.83
2022-12-18T03:38:05.501Z,45.22
2022-12-18T03:39:06.990Z,41.15
2022-12-18T03:40:09.461Z,38.35
2022-12-18T03:41:44.419Z,37.20
2022-12-18T03:43:11.334Z,36.17
2022-12-18T03:44:26.219Z,38.53
2022-12-18T03:45:36.045Z,39.05
2022-12-18T03:46:50.480Z,43.40
2022-12-18T03:48:18.693Z,41.90
2022-12-18T03:49:31.381Z,34.83
2022-12-18T03:50:48.125Z,37.60
2022-12-18T03:51:55.407Z,35.53
2022-12-18T03:53:15.562Z,35.08
2022-12-18T03:54:18.217Z,36.05
2022-12-18T03:55:22.586Z,38.67
2022-12-18T03:56:26.835Z,35.67
2022-12-18T03:57:31.890Z,38.53
2022-12-18T03:58:35.153Z,35.95
2022-12-18T04:00:40.990Z,34.80
2022-12-18T04:01:48.480Z,36.88
2022-12-18T04:02:54.159Z,32.00
2022-12-18T04:03:57.807Z,31.70
2022-12-18T04:05:03.623Z,36.53
2022-12-18T04:06:07.053Z,35.78
2022-12-18T04:07:08.885Z,30.27
2022-12-18T04:08:10.558Z,31.75
2022-12-18T04:09:12.245Z,30.70
2022-12-18T04:10:15.776Z,31.60
2022-12-18T04:11:17.650Z,35.72
2022-12-18T04:12:19.073Z,28.58
2022-12-18T04:13:25.022Z,31.40
2022-12-18T04:14:26.503Z,30.08
2022-12-18T04:15:28.386Z,32.10
2022-12-18T04:16:30.191Z,30.20
2022-12-18T04:17:31.613Z,35.92
2022-12-18T04:18:33.166Z,31.33
2022-12-18T04:19:35.072Z,31.35
2022-12-18T04:20:36.533Z,29.95
2022-12-18T04:21:37.972Z,35.83
2022-12-18T04:22:39.409Z,31.02
2022-12-18T04:23:41.291Z,29.70
2022-12-18T04:24:43.391Z,31.02
2022-12-18T04:25:44.872Z,30.17
2022-12-18T04:26:46.506Z,30.20
2022-12-18T04:27:47.930Z,28.73
2022-12-18T04:28:49.396Z,33.00
2022-12-18T04:29:51.161Z,30.13
2022-12-18T04:30:52.596Z,28.50
2022-12-18T04:31:54.055Z,31.08
2022-12-18T04:32:55.463Z,28.80
2022-12-18T04:33:56.935Z,30.33
2022-12-18T04:34:58.695Z,33.17
2022-12-18T04:36:00.224Z,28.63
2022-12-18T04:37:01.861Z,29.00
2022-12-18T04:38:03.344Z,29.13
2022-12-18T04:39:05.186Z,32.83
2022-12-18T04:40:07.589Z,31.73
2022-12-18T04:41:09.151Z,28.52
2022-12-18T04:42:10.606Z,32.10
2022-12-18T04:43:12.162Z,31.05
2022-12-18T04:44:13.865Z,29.55
2022-12-18T04:45:15.695Z,29.92
2022-12-18T04:46:17.241Z,33.80
2022-12-18T04:47:18.748Z,33.20
2022-12-18T04:48:21.218Z,32.45
2022-12-18T04:49:23.066Z,35.00
2022-12-18T04:50:24.784Z,31.92
2022-12-18T04:51:26.934Z,29.42
2022-12-18T04:52:28.677Z,33.58
2022-12-18T04:53:30.179Z,31.75
2022-12-18T04:54:31.619Z,31.15
2022-12-18T04:55:33.358Z,30.83
2022-12-18T04:56:34.778Z,32.10
2022-12-18T04:57:36.246Z,31.50
2022-12-18T04:58:39.110Z,34.17
2022-12-18T04:59:41.237Z,35.60
2022-12-18T05:00:42.691Z,29.40
2022-12-18T05:01:44.279Z,31.23
2022-12-18T05:02:46.581Z,31.55
2022-12-18T05:03:48.701Z,31.20
2022-12-18T05:04:50.511Z,30.90
2022-12-18T05:05:52.335Z,28.30
2022-12-18T05:06:53.754Z,31.42
2022-12-18T05:07:55.299Z,31.38
2022-12-18T05:08:56.694Z,31.50
2022-12-18T05:09:58.452Z,31.33
2022-12-18T05:11:01.919Z,35.08
2022-12-18T05:12:03.492Z,29.60
2022-12-18T05:13:04.953Z,33.25
2022-12-18T05:14:06.357Z,33.00
2022-12-18T05:15:08.315Z,29.30
2022-12-18T05:16:09.931Z,38.33
2022-12-18T05:17:11.441Z,30.73
2022-12-18T05:18:12.842Z,33.90
2022-12-18T05:19:14.325Z,31.20
2022-12-18T05:20:16.423Z,33.75
2022-12-18T05:21:17.936Z,34.58
2022-12-18T05:22:19.398Z,32.50
2022-12-18T05:23:22.601Z,33.35
2022-12-18T05:25:26.000Z,35.05
2022-12-18T05:26:27.446Z,32.15
2022-12-18T05:27:28.863Z,38.92
2022-12-18T05:28:32.015Z,30.48
2022-12-18T05:29:33.445Z,28.55
2022-12-18T05:30:35.392Z,36.85
2022-12-18T05:31:39.677Z,35.80
2022-12-18T05:32:42.022Z,32.42
2022-12-18T05:33:43.978Z,30.13
2022-12-18T05:34:45.695Z,36.75
2022-12-18T05:36:01.562Z,36.35
2022-12-18T05:37:02.989Z,34.53
2022-12-18T05:38:04.420Z,42.05
2022-12-18T05:39:05.906Z,35.78
2022-12-18T05:40:08.216Z,36.10
2022-12-18T05:41:10.790Z,29.80
2022-12-18T05:42:12.226Z,29.73
2022-12-18T05:43:17.962Z,31.17
2022-12-18T05:44:22.509Z,35.80
2022-12-18T05:45:24.312Z,34.25
2022-12-18T05:46:25.873Z,31.48
2022-12-18T05:47:28.666Z,32.75
2022-12-18T05:48:30.070Z,32.38
2022-12-18T05:49:31.518Z,31.98
2022-12-18T05:50:36.657Z,32.83
2022-12-18T05:51:38.105Z,31.80
2022-12-18T05:52:40.221Z,29.48
2022-12-18T05:53:43.283Z,30.45
2022-12-18T05:54:44.923Z,33.90
2022-12-18T05:55:47.264Z,29.88
2022-12-18T05:56:49.131Z,29.70
2022-12-18T05:57:50.608Z,30.70
2022-12-18T05:58:54.304Z,31.27
2022-12-18T05:59:55.815Z,30.65
2022-12-18T06:00:57.967Z,30.15
2022-12-18T06:01:59.566Z,30.23
2022-12-18T06:03:01.676Z,28.27
2022-12-18T06:04:03.393Z,28.35
2022-12-18T06:05:06.071Z,30.92
2022-12-18T06:06:29.461Z,31.52
2022-12-18T06:07:31.111Z,31.40
2022-12-18T06:08:32.669Z,29.98
2022-12-18T06:09:34.115Z,30.98
2022-12-18T06:10:36.118Z,31.55
2022-12-18T06:11:38.589Z,29.08
2022-12-18T06:12:40.478Z,30.77
2022-12-18T06:13:42.391Z,29.13
2022-12-18T06:14:43.969Z,31.00
2022-12-18T06:15:45.790Z,27.80
2022-12-18T06:16:47.282Z,28.05
2022-12-18T06:17:48.948Z,27.08
2022-12-18T06:18:50.401Z,32.72
2022-12-18T06:19:51.820Z,30.10
2022-12-18T06:20:57.794Z,27.60
2022-12-18T06:21:59.924Z,30.67
2022-12-18T06:23:01.411Z,30.10
2022-12-18T06:24:02.894Z,29.67
2022-12-18T06:25:04.999Z,29.52
2022-12-18T06:26:08.421Z,29.33
2022-12-18T06:27:09.846Z,30.00
2022-12-18T06:28:11.307Z,29.60
2022-12-18T06:29:12.738Z,27.25
2022-12-18T06:30:14.880Z,30.35
2022-12-18T06:31:16.605Z,32.35
2022-12-18T06:32:18.153Z,31.20
2022-12-18T06:33:19.682Z,28.70
2022-12-18T06:34:21.138Z,29.73
2022-12-18T06:35:22.622Z,31.05
2022-12-18T06:36:24.442Z,28.00
2022-12-18T06:37:27.077Z,29.27
2022-12-18T06:38:28.617Z,28.70
2022-12-18T06:39:30.607Z,32.50
2022-12-18T06:40:32.121Z,32.15
2022-12-18T06:41:33.521Z,28.20
2022-12-18T06:42:35.050Z,28.45
2022-12-18T06:43:37.568Z,28.55
2022-12-18T06:44:39.717Z,29.92
2022-12-18T06:45:41.253Z,26.98
2022-12-18T06:46:42.709Z,27.83
2022-12-18T06:47:44.650Z,28.75
2022-12-18T06:48:50.931Z,30.42
2022-12-18T06:49:52.701Z,28.75
2022-12-18T06:50:54.139Z,29.77
2022-12-18T06:51:55.561Z,30.60
2022-12-18T06:52:57.146Z,28.85
2022-12-18T06:53:58.721Z,29.35
2022-12-18T06:55:00.985Z,27.83
2022-12-18T06:56:10.365Z,28.80
2022-12-18T06:57:12.463Z,34.85
2022-12-18T06:58:13.913Z,28.05
2022-12-18T06:59:15.719Z,26.35
2022-12-18T07:00:17.504Z,27.60
2022-12-18T07:01:19.366Z,27.17
2022-12-18T07:02:21.002Z,28.95
2022-12-18T07:03:22.515Z,27.48
2022-12-18T07:04:29.918Z,30.77
2022-12-18T07:05:31.417Z,29.65
2022-12-18T07:06:32.826Z,26.80
2022-12-18T07:07:35.743Z,28.80
2022-12-18T07:08:37.176Z,25.85
2022-12-18T07:09:38.928Z,29.05
2022-12-18T07:10:47.400Z,27.77
2022-12-18T07:11:49.014Z,27.25
2022-12-18T07:12:50.440Z,32.08
2022-12-18T07:13:53.840Z,30.10
2022-12-18T07:14:55.585Z,30.70
2022-12-18T07:16:04.758Z,30.88
2022-12-18T07:17:06.662Z,29.10
2022-12-18T07:18:08.499Z,28.13
2022-12-18T07:19:10.292Z,27.20
2022-12-18T07:20:11.890Z,28.63
2022-12-18T07:21:16.110Z,26.15
2022-12-18T07:22:17.567Z,28.88
2022-12-18T07:23:18.974Z,26.90
2022-12-18T07:24:20.473Z,25.85
2022-12-18T07:25:22.438Z,27.60
2022-12-18T07:26:24.328Z,24.80
2022-12-18T07:27:25.755Z,28.30
2022-12-18T07:28:27.567Z,25.45
2022-12-18T07:29:29.780Z,27.42
2022-12-18T07:30:31.259Z,25.55
2022-12-18T07:31:32.719Z,32.38
2022-12-18T07:32:34.209Z,25.52
2022-12-18T07:33:36.198Z,25.95
2022-12-18T07:34:37.781Z,25.70
2022-12-18T07:35:39.222Z,29.35
2022-12-18T07:36:40.870Z,27.10
2022-12-18T07:37:42.295Z,30.20
2022-12-18T07:38:43.990Z,25.35
2022-12-18T07:39:45.433Z,28.05
2022-12-18T07:40:47.141Z,29.55
2022-12-18T07:42:08.512Z,26.13
2022-12-18T07:43:09.931Z,25.45
2022-12-18T07:44:11.853Z,30.33
2022-12-18T07:45:13.325Z,26.15
2022-12-18T07:46:16.682Z,28.38
2022-12-18T07:47:18.177Z,29.75
2022-12-18T07:48:19.600Z,25.27
2022-12-18T07:49:21.173Z,27.33
2022-12-18T07:50:22.937Z,29.85
2022-12-18T07:51:24.401Z,28.23
2022-12-18T07:52:26.450Z,23.60
2022-12-18T07:53:28.333Z,26.75
2022-12-18T07:54:29.766Z,26.00
2022-12-18T07:55:59.973Z,27.77
2022-12-18T07:56:53.921Z,25.58
2022-12-18T07:58:00.655Z,26.90
2022-12-18T07:59:03.233Z,28.35
2022-12-18T08:00:05.216Z,27.73
2022-12-18T08:01:08.151Z,28.35
2022-12-18T08:02:09.776Z,23.23
2022-12-18T08:03:11.422Z,30.00
2022-12-18T08:04:13.679Z,26.23
2022-12-18T08:05:15.151Z,26.42
2022-12-18T08:06:16.594Z,27.17
2022-12-18T08:07:18.040Z,24.42
2022-12-18T08:08:19.448Z,27.20
2022-12-18T08:09:20.958Z,25.60
2022-12-18T08:10:22.830Z,28.17
2022-12-18T08:11:26.501Z,25.67
2022-12-18T08:12:27.946Z,26.55
2022-12-18T08:13:29.488Z,28.20
2022-12-18T08:14:30.957Z,25.45
2022-12-18T08:15:32.375Z,27.88
2022-12-18T08:16:33.821Z,26.58
2022-12-18T08:17:35.517Z,28.48
2022-12-18T08:18:38.244Z,28.67
2022-12-18T08:19:39.722Z,28.60
2022-12-18T08:20:41.148Z,27.25
2022-12-18T08:21:42.622Z,25.33
2022-12-18T08:22:44.028Z,27.35
2022-12-18T08:23:46.131Z,28.95
2022-12-18T08:24:48.007Z,25.95
2022-12-18T08:25:49.681Z,28.70
2022-12-18T08:27:01.050Z,32.72
2022-12-18T08:28:12.946Z,27.63
2022-12-18T08:29:19.942Z,31.67
2022-12-18T08:30:23.119Z,28.48
2022-12-18T08:31:25.039Z,28.08
2022-12-18T08:32:28.126Z,27.00
2022-12-18T08:33:29.884Z,29.00
2022-12-18T08:34:31.808Z,26.80
2022-12-18T08:35:42.509Z,30.75
2022-12-18T08:36:46.998Z,25.25
2022-12-18T08:37:48.478Z,27.67
2022-12-18T08:38:50.330Z,27.13
2022-12-18T08:39:51.817Z,27.27
2022-12-18T08:41:03.402Z,27.25
2022-12-18T08:42:23.364Z,24.80
2022-12-18T08:43:43.848Z,27.85
2022-12-18T08:44:45.369Z,26.90
2022-12-18T08:45:46.905Z,30.63
2022-12-18T08:46:48.419Z,24.48
2022-12-18T08:47:49.855Z,27.85
2022-12-18T08:48:52.878Z,28.65
2022-12-18T08:49:54.338Z,26.17
2022-12-18T08:51:00.593Z,25.60
2022-12-18T08:52:03.644Z,28.73
2022-12-18T08:53:05.383Z,26.00
2022-12-18T08:54:07.791Z,27.20
2022-12-18T08:55:09.954Z,26.58
2022-12-18T08:56:12.322Z,26.67
2022-12-18T08:57:13.741Z,25.95
2022-12-18T08:58:15.150Z,29.23
2022-12-18T08:59:20.097Z,26.48
2022-12-18T09:00:22.388Z,25.95
2022-12-18T09:01:25.194Z,27.55
2022-12-18T09:02:26.922Z,26.65
2022-12-18T09:03:28.798Z,27.40
2022-12-18T09:04:30.337Z,26.58
2022-12-18T09:05:31.937Z,28.77
2022-12-18T09:06:33.433Z,26.42
2022-12-18T09:07:34.870Z,29.42
2022-12-18T09:08:38.037Z,27.95
2022-12-18T09:09:40.030Z,28.50
2022-12-18T09:10:45.980Z,26.80
2022-12-18T09:11:47.437Z,28.17
2022-12-18T09:12:48.819Z,26.92
2022-12-18T09:13:51.703Z,30.10
2022-12-18T09:14:53.209Z,25.92
2022-12-18T09:15:56.217Z,27.50
2022-12-18T09:16:57.636Z,25.38
2022-12-18T09:17:59.065Z,26.95
2022-12-18T09:19:00.756Z,28.85
2022-12-18T09:20:02.337Z,23.63
2022-12-18T09:21:11.534Z,25.58
2022-12-18T09:22:12.995Z,26.77
2022-12-18T09:23:15.472Z,29.33
2022-12-18T09:24:18.135Z,24.50
2022-12-18T09:25:19.708Z,26.67
2022-12-18T09:26:22.466Z,25.45
2022-12-18T09:27:23.888Z,26.52
2022-12-18T09:28:25.373Z,26.38
2022-12-18T09:29:27.207Z,25.98
2022-12-18T09:30:28.808Z,30.10
2022-12-18T09:31:30.285Z,29.75
2022-12-18T09:32:31.741Z,26.17
2022-12-18T09:33:33.242Z,24.60
2022-12-18T09:34:34.880Z,24.25
2022-12-18T09:35:40.839Z,26.73
2022-12-18T09:36:42.331Z,25.27
2022-12-18T09:37:45.175Z,25.50
2022-12-18T09:38:47.017Z,26.95
2022-12-18T09:39:48.473Z,25.30
2022-12-18T09:40:55.016Z,25.48
2022-12-18T09:41:58.875Z,27.42
2022-12-18T09:43:04.226Z,25.27
2022-12-18T09:44:15.194Z,26.80
2022-12-18T09:45:18.061Z,28.90
2022-12-18T09:46:32.143Z,26.20
2022-12-18T09:47:38.655Z,23.42
2022-12-18T09:48:43.990Z,23.13
2022-12-18T09:49:48.671Z,27.90
2022-12-18T09:50:52.264Z,27.45
2022-12-18T09:52:01.004Z,28.17
2022-12-18T09:53:16.890Z,27.83
2022-12-18T09:54:26.780Z,28.08
2022-12-18T09:55:42.251Z,26.33
2022-12-18T09:56:45.550Z,26.08
2022-12-18T09:57:52.352Z,29.42
2022-12-18T09:59:00.005Z,25.42
2022-12-18T10:00:16.008Z,27.60
2022-12-18T10:01:23.713Z,25.48
2022-12-18T10:02:27.582Z,28.15
2022-12-18T10:03:31.991Z,27.65
2022-12-18T10:04:34.290Z,28.27
2022-12-18T10:05:42.933Z,25.95
2022-12-18T10:06:49.673Z,24.85
2022-12-18T10:07:56.434Z,27.00
2022-12-18T10:09:12.341Z,25.67
2022-12-18T10:10:47.492Z,24.90
2022-12-18T10:12:01.239Z,24.05
2022-12-18T10:13:18.074Z,28.50
2022-12-18T10:14:42.988Z,26.07
2022-12-18T10:16:10.226Z,25.38
2022-12-18T10:17:22.091Z,25.95
2022-12-18T10:18:48.771Z,28.05
2022-12-18T10:20:05.855Z,28.40
2022-12-18T10:21:21.241Z,27.02
2022-12-18T10:22:27.580Z,22.35
2022-12-18T10:24:09.993Z,25.80
2022-12-18T10:25:20.411Z,23.73
2022-12-18T10:26:21.989Z,25.55
2022-12-18T10:27:26.989Z,24.13
2022-12-18T10:28:31.570Z,25.05
2022-12-18T10:29:33.466Z,28.00
2022-12-18T10:30:34.962Z,26.77
2022-12-18T10:31:36.793Z,27.02
2022-12-18T10:32:38.792Z,27.50
2022-12-18T10:33:42.230Z,27.05
2022-12-18T10:34:47.238Z,24.15
2022-12-18T10:35:58.800Z,26.58
2022-12-18T10:37:02.720Z,26.15
2022-12-18T10:38:06.874Z,23.02
2022-12-18T10:39:23.620Z,30.88
2022-12-18T10:40:25.140Z,25.38
2022-12-18T10:41:29.181Z,27.80
2022-12-18T10:42:31.023Z,26.60
2022-12-18T10:43:37.650Z,29.33
2022-12-18T10:44:39.670Z,30.90
2022-12-18T10:45:42.711Z,27.38
2022-12-18T10:46:47.074Z,53.20
2022-12-18T10:47:50.271Z,32.80
2022-12-18T10:49:56.766Z,23.75
2022-12-18T10:51:14.005Z,28.02
2022-12-18T10:52:18.471Z,24.13
2022-12-18T10:53:26.421Z,25.65
2022-12-18T10:54:30.243Z,24.27
2022-12-18T10:55:38.567Z,27.65
2022-12-18T10:56:40.250Z,23.75
2022-12-18T10:57:42.722Z,28.23
2022-12-18T10:58:56.799Z,26.15
2022-12-18T11:00:00.331Z,23.02
2022-12-18T11:01:15.029Z,22.83
2022-12-18T11:02:28.498Z,29.10
2022-12-18T11:03:37.018Z,22.17
2022-12-18T11:04:51.967Z,23.20
2022-12-18T11:06:07.196Z,27.48
2022-12-18T11:07:09.962Z,22.55
2022-12-18T11:08:23.646Z,22.95
2022-12-18T11:09:32.978Z,20.20
2022-12-18T11:11:38.369Z,25.08
2022-12-18T11:12:40.531Z,25.52
2022-12-18T11:13:42.113Z,23.80
2022-12-18T11:14:48.665Z,22.25
2022-12-18T11:15:50.453Z,23.50
2022-12-18T11:18:31.416Z,27.70
2022-12-18T11:19:38.983Z,22.10
2022-12-18T11:20:40.452Z,22.90
2022-12-18T11:21:43.335Z,22.05
2022-12-18T11:22:59.258Z,30.13
2022-12-18T11:24:00.706Z,25.20
2022-12-18T11:26:36.789Z,22.42
2022-12-18T11:27:40.238Z,24.48
2022-12-18T11:28:52.069Z,24.27
2022-12-18T11:29:53.519Z,27.42
2022-12-18T11:31:17.214Z,27.63
2022-12-18T11:32:33.973Z,27.77
2022-12-18T11:33:37.590Z,23.60
2022-12-18T11:34:39.554Z,21.83
2022-12-18T11:35:49.154Z,24.33
2022-12-18T11:36:51.225Z,26.45
2022-12-18T11:38:07.466Z,26.02
2022-12-18T11:39:25.465Z,31.00
2022-12-18T11:40:40.845Z,32.75
2022-12-18T11:42:10.093Z,28.58
2022-12-18T11:43:17.971Z,24.10
2022-12-18T11:44:43.590Z,22.63
2022-12-18T11:45:56.287Z,25.50
2022-12-18T11:47:08.860Z,23.00
2022-12-18T11:48:29.403Z,22.88
2022-12-18T11:49:35.909Z,21.00
2022-12-18T11:50:37.599Z,24.90
2022-12-18T11:51:52.682Z,25.65
2022-12-18T11:52:57.507Z,26.15
2022-12-18T11:54:11.196Z,26.52
2022-12-18T11:55:36.129Z,26.85
2022-12-18T11:56:48.465Z,23.67
2022-12-18T11:58:13.519Z,19.75
2022-12-18T11:59:41.049Z,21.88
2022-12-18T12:01:02.978Z,20.75
2022-12-18T12:02:29.269Z,21.00
2022-12-18T12:03:55.316Z,24.35
2022-12-18T12:05:05.301Z,22.50
2022-12-18T12:06:30.294Z,22.45
2022-12-18T12:07:53.401Z,22.85
2022-12-18T12:09:07.812Z,23.13
2022-12-18T12:10:27.995Z,21.17
2022-12-18T12:11:48.045Z,23.10
2022-12-18T12:13:01.369Z,21.80
2022-12-18T12:14:24.170Z,24.73
2022-12-18T12:15:43.890Z,24.13
2022-12-18T12:16:54.831Z,23.83
2022-12-18T12:18:16.735Z,23.80
2022-12-18T12:19:41.076Z,26.70
2022-12-18T12:20:45.216Z,25.25
2022-12-18T12:22:28.821Z,25.80
2022-12-18T12:23:41.456Z,26.13
2022-12-18T12:25:01.735Z,21.80
2022-12-18T12:26:08.793Z,24.73
2022-12-18T12:27:30.506Z,24.02
2022-12-18T12:28:47.235Z,25.83
2022-12-18T12:29:57.729Z,24.98
2022-12-18T12:31:34.814Z,26.25
2022-12-18T12:32:46.715Z,22.17
2022-12-18T12:34:12.734Z,25.40
2022-12-18T12:35:17.715Z,23.08
2022-12-18T12:36:31.968Z,26.25
2022-12-18T12:37:58.311Z,23.70
2022-12-18T12:39:04.184Z,24.05
2022-12-18T12:40:26.733Z,27.10
2022-12-18T12:41:52.425Z,23.15
2022-12-18T12:43:15.820Z,22.02
2022-12-18T12:44:43.837Z,25.75
2022-12-18T12:45:51.403Z,21.70
2022-12-18T12:46:57.565Z,24.00
2022-12-18T12:48:02.569Z,24.20
2022-12-18T12:49:10.912Z,27.00
2022-12-18T12:50:17.801Z,22.90
2022-12-18T12:51:27.294Z,23.65
2022-12-18T12:52:36.414Z,25.80
2022-12-18T12:53:40.149Z,23.05
2022-12-18T12:54:43.670Z,25.48
2022-12-18T12:55:45.366Z,26.85
2022-12-18T12:57:06.961Z,22.23
2022-12-18T12:59:51.757Z,22.02
2022-12-18T13:01:23.585Z,23.55
2022-12-18T13:02:43.925Z,22.42
2022-12-18T13:04:13.136Z,21.50
2022-12-18T13:05:52.259Z,28.85
2022-12-18T13:07:06.331Z,24.23
2022-12-18T13:08:26.595Z,24.17
2022-12-18T13:09:36.629Z,24.35
2022-12-18T13:10:47.236Z,23.20
2022-12-18T13:12:08.084Z,21.10
2022-12-18T13:13:17.193Z,24.17
2022-12-18T13:14:30.380Z,22.15
2022-12-18T13:15:36.714Z,23.67
2022-12-18T13:16:41.675Z,22.58
2022-12-18T13:17:43.130Z,20.60
2022-12-18T13:18:52.505Z,22.38
2022-12-18T13:20:10.065Z,22.15
2022-12-18T13:21:29.641Z,21.58
2022-12-18T13:22:34.275Z,23.58
2022-12-18T13:23:37.750Z,22.38
2022-12-18T13:24:39.281Z,23.73
2022-12-18T13:25:40.810Z,21.88
2022-12-18T13:26:42.690Z,23.83
2022-12-18T13:27:44.055Z,23.30
2022-12-18T13:28:48.227Z,24.27
2022-12-18T13:29:49.794Z,21.73
2022-12-18T13:30:59.198Z,23.98
2022-12-18T13:33:15.451Z,21.13
2022-12-18T13:35:47.937Z,22.85
2022-12-18T13:36:51.043Z,20.85
2022-12-18T13:37:55.388Z,22.73
2022-12-18T13:39:18.464Z,21.02
2022-12-18T13:40:41.130Z,20.35
2022-12-18T13:41:44.195Z,18.73
2022-12-18T13:43:04.751Z,21.40
2022-12-18T13:44:32.571Z,22.45
2022-12-18T13:45:42.996Z,20.33
2022-12-18T13:46:47.494Z,22.15
2022-12-18T13:47:49.715Z,23.65
2022-12-18T13:49:19.153Z,20.05
2022-12-18T13:50:28.692Z,22.73
2022-12-18T13:51:36.449Z,20.15
2022-12-18T13:52:40.458Z,19.63
2022-12-18T13:54:05.999Z,20.10
2022-12-18T13:55:17.297Z,18.30
2022-12-18T13:56:22.466Z,19.83
2022-12-18T13:57:35.812Z,20.23
2022-12-18T13:58:37.880Z,22.25
2022-12-18T13:59:41.706Z,19.17
2022-12-18T14:00:45.045Z,21.60
2022-12-18T14:01:53.154Z,19.60
2022-12-18T14:02:56.053Z,22.13
2022-12-18T14:04:11.501Z,20.02
2022-12-18T14:05:26.895Z,20.83
2022-12-18T14:07:37.779Z,19.13
2022-12-18T14:08:45.476Z,19.80
2022-12-18T14:09:52.312Z,18.17
2022-12-18T14:10:57.637Z,19.90
2022-12-18T14:12:18.076Z,20.38
2022-12-18T14:13:42.185Z,22.60
2022-12-18T14:14:48.202Z,22.00
2022-12-18T14:15:52.296Z,20.83
2022-12-18T14:18:01.908Z,21.40
2022-12-18T14:19:14.943Z,20.65
2022-12-18T14:20:18.519Z,28.08
2022-12-18T14:21:33.774Z,20.17
2022-12-18T14:22:35.713Z,20.67
2022-12-18T14:23:43.208Z,22.58
2022-12-18T14:24:45.393Z,23.52
2022-12-18T14:25:47.346Z,21.23
2022-12-18T14:26:51.053Z,19.40
2022-12-18T14:28:02.694Z,19.95
2022-12-18T14:29:23.027Z,19.92
2022-12-18T14:30:24.518Z,18.45
2022-12-18T14:31:28.067Z,19.60
2022-12-18T14:32:29.537Z,16.42